Time;durP1;ratioP1;P1;durP2;ratioP2;P2;SDS_P1;SDS_P2;PMS_P1;PMS_P2;Temp;Humidity;BMP_temperature;BMP_pressure;BME280_temperature;BME280_humidity;BME280_pressure;Samples;Min_cycle;Max_cycle;Signal;HPM_P1;HPM_P2
2023/10/16 00:01:09;;;;;;;4.80;1.80;;;;;;;;;;4963277;28;99138;-82
2023/10/16 00:03:38;;;;;;;5.22;1.75;;;;;;;;;;4926310;28;102141;-82
2023/10/16 00:06:05;;;;;;;3.47;1.65;;;;;;;;;;4958279;28;99160;-82
2023/10/16 00:08:35;;;;;;;4.75;1.63;;;;;;;;;;4954736;28;98842;-82
2023/10/16 00:11:03;;;;;;;4.80;1.75;;;;;;;;;;4953550;28;99071;-82
2023/10/16 00:13:37;;;;;;;4.45;1.60;;;;;;;;;;4964256;28;99315;-82
2023/10/16 00:16:03;;;;;;;5.50;1.80;;;;;;;;;;4958988;28;97859;-81
2023/10/16 00:18:34;;;;;;;4.78;1.65;;;;;;;;;;4953057;28;98972;-82
2023/10/16 00:21:04;;;;;;;4.20;1.60;;;;;;;;;;4951305;28;98858;-82
2023/10/16 00:23:40;;;;;;;4.20;1.60;;;;;;;;;;4936824;28;100925;-82
2023/10/16 00:26:08;;;;;;;4.88;1.50;;;;;;;;;;4942197;28;102393;-82
2023/10/16 00:28:34;;;;;;;8.00;1.90;;;;;;;;;;4944051;28;98643;-81
2023/10/16 00:31:03;;;;;;;4.50;1.75;;;;;;;;;;4945917;28;99403;-82
2023/10/16 00:33:31;;;;;;;;;;;;;;;;;;4957666;28;99280;-82
2023/10/16 00:36:00;;;;;;;3.53;1.40;;;;;;;;;;4956963;28;105979;-81
2023/10/16 00:38:26;;;;;;;5.28;1.50;;;;;;;;;;4926892;28;99238;-82
2023/10/16 00:41:15;;;;;;;;;;;;;;;;;;4927568;28;97847;-82
2023/10/16 00:43:40;;;;;;;3.47;1.30;;;;;;;;;;4926836;28;110561;-83
2023/10/16 00:46:09;;;;;;;4.78;1.63;;;;;;;;;;4922945;28;99325;-82
2023/10/16 00:48:37;;;;;;;3.90;1.60;;;;;;;;;;4928195;28;99381;-82
2023/10/16 00:51:09;;;;;;;4.80;1.58;;;;;;;;;;4928408;28;100031;-82
2023/10/16 00:53:37;;;;;;;7.25;1.70;;;;;;;;;;4954592;28;100261;-82
2023/10/16 00:56:08;;;;;;;4.38;1.40;;;;;;;;;;4961743;28;99026;-81
2023/10/16 00:58:35;;;;;;;4.22;1.45;;;;;;;;;;4952189;28;98614;-82
2023/10/16 01:01:04;;;;;;;5.70;1.75;;;;;;;;;;4968223;28;99231;-82
2023/10/16 01:03:36;;;;;;;4.13;1.73;;;;;;;;;;4944194;28;101521;-82
2023/10/16 01:06:04;;;;;;;4.20;1.60;;;;;;;;;;4947471;28;98248;-81
2023/10/16 01:08:31;;;;;;;4.88;1.48;;;;;;;;;;4946888;28;98999;-82
2023/10/16 01:10:58;;;;;;;3.42;1.38;;;;;;;;;;4954334;28;100117;-81
2023/10/16 01:13:28;;;;;;;4.03;1.70;;;;;;;;;;4966820;28;99947;-82
2023/10/16 01:15:56;;;;;;;5.63;1.67;;;;;;;;;;4950608;28;98634;-82
2023/10/16 01:18:23;;;;;;;5.53;1.63;;;;;;;;;;4961643;28;103662;-82
2023/10/16 01:20:51;;;;;;;5.53;1.60;;;;;;;;;;4952056;28;99453;-83
2023/10/16 01:23:21;;;;;;;4.53;1.60;;;;;;;;;;4949865;28;98666;-83
2023/10/16 01:25:51;;;;;;;7.80;1.50;;;;;;;;;;4959332;28;99314;-82
2023/10/16 01:28:19;;;;;;;6.68;1.60;;;;;;;;;;4957058;28;98852;-82
2023/10/16 01:30:47;;;;;;;5.13;1.55;;;;;;;;;;4954330;28;99029;-82
2023/10/16 01:33:16;;;;;;;5.15;1.60;;;;;;;;;;4945991;28;102147;-82
2023/10/16 01:35:44;;;;;;;4.63;1.48;;;;;;;;;;4962770;28;99222;-81
2023/10/16 01:38:17;;;;;;;4.95;1.70;;;;;;;;;;4954082;28;99987;-80
2023/10/16 01:40:47;;;;;;;;;;;;;;;;;;4967324;28;99275;-81
2023/10/16 01:43:14;;;;;;;5.13;1.60;;;;;;;;;;4966951;28;116325;-81
2023/10/16 01:45:49;;;;;;;4.43;1.27;;;;;;;;;;4959778;28;100199;-81
2023/10/16 01:48:19;;;;;;;4.90;1.35;;;;;;;;;;4947040;28;98823;-81
2023/10/16 01:50:50;;;;;;;6.90;1.50;;;;;;;;;;4966528;28;98696;-81
2023/10/16 01:53:20;;;;;;;5.45;1.70;;;;;;;;;;4951585;28;99079;-82
2023/10/16 01:55:56;;;;;;;5.07;1.73;;;;;;;;;;4947359;28;99326;-81
2023/10/16 01:58:24;;;;;;;4.68;1.60;;;;;;;;;;4964415;28;103101;-81
2023/10/16 02:00:54;;;;;;;6.22;1.67;;;;;;;;;;4952143;28;101702;-83
2023/10/16 02:03:25;;;;;;;4.00;1.75;;;;;;;;;;4947290;28;99478;-82
2023/10/16 02:05:53;;;;;;;4.88;1.80;;;;;;;;;;4960923;28;102533;-82
2023/10/16 02:08:20;;;;;;;3.90;1.50;;;;;;;;;;4957515;28;99075;-82
2023/10/16 02:10:49;;;;;;;4.43;1.77;;;;;;;;;;4946573;28;98806;-82
2023/10/16 02:13:16;;;;;;;4.53;1.58;;;;;;;;;;4951775;28;99319;-81
2023/10/16 02:15:43;;;;;;;4.10;1.67;;;;;;;;;;4945432;28;99077;-81
2023/10/16 02:18:18;;;;;;;4.53;1.58;;;;;;;;;;4946611;28;101829;-81
2023/10/16 02:20:45;;;;;;;5.80;2.03;;;;;;;;;;4955676;28;98308;-82
2023/10/16 02:23:12;;;;;;;5.50;1.92;;;;;;;;;;4940583;28;98892;-81
2023/10/16 02:25:38;;;;;;;4.40;1.50;;;;;;;;;;4941169;28;101040;-81
2023/10/16 02:28:07;;;;;;;4.78;1.70;;;;;;;;;;4959473;28;102844;-80
2023/10/16 02:30:38;;;;;;;4.53;1.65;;;;;;;;;;4948374;28;98904;-81
2023/10/16 02:33:15;;;;;;;5.72;1.80;;;;;;;;;;4955773;28;99532;-81
2023/10/16 02:35:47;;;;;;;5.22;1.80;;;;;;;;;;4945180;28;99500;-81
2023/10/16 02:38:14;;;;;;;5.13;1.63;;;;;;;;;;4960979;28;98766;-82
2023/10/16 02:40:43;;;;;;;6.43;1.60;;;;;;;;;;4952422;28;99659;-82
2023/10/16 02:43:18;;;;;;;5.78;1.60;;;;;;;;;;4963475;28;98719;-83
2023/10/16 02:45:47;;;;;;;5.07;1.60;;;;;;;;;;4954868;28;101589;-81
2023/10/16 02:48:16;;;;;;;5.28;1.70;;;;;;;;;;4966129;28;99104;-81
2023/10/16 02:50:43;;;;;;;6.63;1.50;;;;;;;;;;4958356;28;98525;-81
2023/10/16 02:53:11;;;;;;;4.57;1.55;;;;;;;;;;4953918;28;103285;-80
2023/10/16 02:55:40;;;;;;;6.18;1.80;;;;;;;;;;4939805;28;98479;-81
2023/10/16 02:58:11;;;;;;;5.28;1.77;;;;;;;;;;4923893;28;101933;-82
2023/10/16 03:00:43;;;;;;;3.17;1.40;;;;;;;;;;4938059;28;99256;-81
2023/10/16 03:03:10;;;;;;;3.58;1.55;;;;;;;;;;4946023;28;98828;-81
2023/10/16 03:05:36;;;;;;;6.05;1.50;;;;;;;;;;4959722;28;98960;-81
2023/10/16 03:08:05;;;;;;;6.10;1.70;;;;;;;;;;4957244;28;99022;-81
2023/10/16 03:10:32;;;;;;;6.03;1.60;;;;;;;;;;4961372;28;98038;-81
2023/10/16 03:13:05;;;;;;;5.85;1.33;;;;;;;;;;4958040;28;98657;-82
2023/10/16 03:15:38;;;;;;;6.03;1.70;;;;;;;;;;4965835;28;98545;-81
2023/10/16 03:18:05;;;;;;;5.57;1.50;;;;;;;;;;4960143;28;99385;-81
2023/10/16 03:20:36;;;;;;;5.45;1.63;;;;;;;;;;4946280;28;102211;-81
2023/10/16 03:23:07;;;;;;;3.92;1.58;;;;;;;;;;4943644;28;98727;-82
2023/10/16 03:28:11;;;;;;;3.33;1.40;;;;;;;;;;4962663;28;100189;-81
2023/10/16 03:30:42;;;;;;;2.92;1.42;;;;;;;;;;4960381;28;99275;-82
2023/10/16 03:33:13;;;;;;;4.10;1.30;;;;;;;;;;4965724;28;98889;-81
2023/10/16 03:35:43;;;;;;;4.78;1.60;;;;;;;;;;4962087;28;99199;-82
2023/10/16 03:38:24;;;;;;;3.45;1.30;;;;;;;;;;4960842;28;98780;-81
2023/10/16 03:40:51;;;;;;;4.60;1.42;;;;;;;;;;4948631;28;99175;-82
2023/10/16 03:43:19;;;;;;;4.03;1.45;;;;;;;;;;4960584;28;99698;-81
2023/10/16 03:45:46;;;;;;;3.33;1.33;;;;;;;;;;4941310;28;100655;-82
2023/10/16 03:48:15;;;;;;;4.30;1.20;;;;;;;;;;4963604;28;99214;-82
2023/10/16 03:50:42;;;;;;;3.95;1.58;;;;;;;;;;4956350;28;98747;-82
2023/10/16 03:53:09;;;;;;;4.18;1.50;;;;;;;;;;4947977;28;99263;-81
2023/10/16 03:55:40;;;;;;;3.45;1.30;;;;;;;;;;4931702;28;99410;-81
2023/10/16 03:58:06;;;;;;;3.03;1.20;;;;;;;;;;4947009;28;98745;-81
2023/10/16 04:00:52;;;;;;;3.30;1.33;;;;;;;;;;4952873;28;98442;-81
2023/10/16 04:03:21;;;;;;;3.50;1.30;;;;;;;;;;4941143;28;98736;-82
2023/10/16 04:05:50;;;;;;;4.93;1.50;;;;;;;;;;4960222;28;99192;-82
2023/10/16 04:08:24;;;;;;;3.90;1.50;;;;;;;;;;4947655;28;99980;-81
2023/10/16 04:10:56;;;;;;;2.70;1.13;;;;;;;;;;4933366;28;98558;-81
2023/10/16 04:13:26;;;;;;;4.22;1.35;;;;;;;;;;4957916;28;99011;-81
2023/10/16 04:18:33;;;;;;;5.57;1.60;;;;;;;;;;4967373;28;98843;-82
2023/10/16 04:26:29;;;;;;;6.03;1.40;;;;;;;;;;4979380;28;98977;-83
2023/10/16 04:31:44;;;;;;;4.32;1.30;;;;;;;;;;4968666;28;98601;-81
2023/10/16 04:34:54;;;;;;;3.55;1.27;;;;;;;;;;4955918;28;99321;-81
2023/10/16 04:48:06;;;;;;;5.07;1.40;;;;;;;;;;4921451;28;99847;-81
2023/10/16 04:50:37;;;;;;;3.25;1.20;;;;;;;;;;4962133;28;106271;-81
2023/10/16 04:53:08;;;;;;;4.88;1.50;;;;;;;;;;4949091;28;98010;-81
2023/10/16 05:06:38;;;;;;;4.53;1.75;;;;;;;;;;4950693;28;100297;-81
2023/10/16 06:15:21;;;;;;;6.20;2.22;;;;;;;;;;4948301;28;98240;-81
2023/10/16 06:17:51;;;;;;;13.27;2.35;;;;;;;;;;4962051;28;98503;-81
2023/10/16 06:20:20;;;;;;;7.45;2.10;;;;;;;;;;4968804;28;99103;-82
2023/10/16 06:22:51;;;;;;;5.50;2.03;;;;;;;;;;4946323;28;99548;-82
2023/10/16 06:25:19;;;;;;;6.65;1.92;;;;;;;;;;4958385;28;99117;-83
2023/10/16 06:27:46;;;;;;;5.53;1.73;;;;;;;;;;4961630;28;99067;-83
2023/10/16 06:30:18;;;;;;;8.57;2.25;;;;;;;;;;4958897;28;98752;-81
2023/10/16 06:32:49;;;;;;;4.80;1.95;;;;;;;;;;4963927;28;98984;-81
2023/10/16 06:35:19;;;;;;;4.20;1.60;;;;;;;;;;4932766;28;99102;-80
2023/10/16 06:37:55;;;;;;;6.70;2.00;;;;;;;;;;4943580;28;98868;-82
2023/10/16 06:40:25;;;;;;;5.30;1.90;;;;;;;;;;4947691;28;99257;-81
2023/10/16 06:43:09;;;;;;;5.00;1.75;;;;;;;;;;4958449;28;98853;-82
2023/10/16 06:45:41;;;;;;;3.88;1.58;;;;;;;;;;4940462;28;101761;-81
2023/10/16 06:48:09;;;;;;;5.00;1.80;;;;;;;;;;4942197;28;99554;-80
2023/10/16 06:50:43;;;;;;;4.10;1.70;;;;;;;;;;4964825;28;99768;-81
2023/10/16 06:53:11;;;;;;;3.95;1.48;;;;;;;;;;4952984;28;102384;-80
2023/10/16 06:55:38;;;;;;;3.78;1.58;;;;;;;;;;4944300;28;98705;-80
2023/10/16 06:58:05;;;;;;;3.95;1.73;;;;;;;;;;4923580;28;99064;-80
2023/10/16 07:00:38;;;;;;;5.72;1.92;;;;;;;;;;4924369;28;99190;-81
2023/10/16 07:03:13;;;;;;;3.90;1.52;;;;;;;;;;5007312;27;86374;-81
2023/10/16 07:05:43;;;;;;;5.03;1.60;;;;;;;;;;4988885;28;86964;-81
2023/10/16 07:08:11;;;;;;;7.28;1.58;;;;;;;;;;4987513;28;87269;-81
2023/10/16 07:10:41;;;;;;;3.55;1.45;;;;;;;;;;4988615;28;88537;-82
2023/10/16 07:13:08;;;;;;;4.00;1.30;;;;;;;;;;4988252;28;87116;-82
2023/10/16 07:15:34;;;;;;;3.45;1.40;;;;;;;;;;4987210;28;87064;-81
2023/10/16 07:18:04;;;;;;;6.20;1.55;;;;;;;;;;4984558;28;88534;-81
2023/10/16 07:20:33;;;;;;;4.95;1.52;;;;;;;;;;4990178;28;86474;-80
2023/10/16 07:23:00;;;;;;;5.03;1.55;;;;;;;;;;5003002;28;86876;-80
2023/10/16 07:28:12;;;;;;;3.15;1.30;;;;;;;;;;4973938;28;90205;-80
2023/10/16 07:30:45;;;;;;;4.50;1.25;;;;;;;;;;4988245;28;87257;-80
2023/10/16 07:33:15;;;;;;;4.35;1.40;;;;;;;;;;4988258;27;86827;-80
2023/10/16 07:35:45;;;;;;;4.63;1.50;;;;;;;;;;4985401;28;86963;-80
2023/10/16 07:38:12;;;;;;;3.00;1.40;;;;;;;;;;4986552;28;87456;-80
2023/10/16 07:40:39;;;;;;;6.07;1.35;;;;;;;;;;4988775;28;87464;-81
2023/10/16 07:43:06;;;;;;;2.97;1.20;;;;;;;;;;4988300;28;87162;-80
2023/10/16 07:45:32;;;;;;;3.67;1.20;;;;;;;;;;4989186;28;86914;-81
2023/10/16 07:48:08;;;;;;;3.70;1.30;;;;;;;;;;4986971;28;87298;-81
2023/10/16 07:50:38;;;;;;;2.78;1.30;;;;;;;;;;4988149;28;88646;-80
2023/10/16 07:53:07;;;;;;;2.95;1.15;;;;;;;;;;4987409;28;87311;-81
2023/10/16 07:55:40;;;;;;;2.35;1.13;;;;;;;;;;4987757;28;86825;-80
2023/10/16 07:58:15;;;;;;;2.63;1.15;;;;;;;;;;4987090;27;87516;-80
2023/10/16 08:00:55;;;;;;;3.35;1.20;;;;;;;;;;4975711;28;87862;-80
2023/10/16 08:03:22;;;;;;;4.03;1.30;;;;;;;;;;4988161;27;87128;-82
2023/10/16 08:05:49;;;;;;;2.85;1.20;;;;;;;;;;4988918;28;87169;-82
2023/10/16 08:08:16;;;;;;;3.30;1.30;;;;;;;;;;4990479;28;87849;-82
2023/10/16 08:10:42;;;;;;;2.08;1.02;;;;;;;;;;4987845;28;93782;-82
2023/10/16 08:13:12;;;;;;;2.97;1.23;;;;;;;;;;4982261;28;86798;-82
2023/10/16 08:15:44;;;;;;;3.10;1.20;;;;;;;;;;4977718;28;88200;-82
2023/10/16 08:18:12;;;;;;;2.67;1.10;;;;;;;;;;4965184;28;86583;-82
2023/10/16 08:23:24;;;;;;;2.58;1.10;;;;;;;;;;4974973;28;88090;-82
2023/10/16 08:25:50;;;;;;;2.53;1.20;;;;;;;;;;4974272;28;87876;-82
2023/10/16 08:28:20;;;;;;;3.33;1.20;;;;;;;;;;4971670;28;89205;-82
2023/10/16 08:33:18;;;;;;;2.55;1.10;;;;;;;;;;4974178;28;87283;-82
2023/10/16 08:35:45;;;;;;;1.98;1.20;;;;;;;;;;4978745;28;86939;-82
2023/10/16 08:38:20;;;;;;;1.27;0.90;;;;;;;;;;4973230;28;88424;-82
2023/10/16 08:40:57;;;;;;;2.40;1.00;;;;;;;;;;4961088;28;88446;-82
2023/10/16 08:43:39;;;;;;;3.17;1.00;;;;;;;;;;4974090;28;87403;-83
2023/10/16 08:46:18;;;;;;;3.65;1.10;;;;;;;;;;4976410;28;90025;-82
2023/10/16 08:48:46;;;;;;;2.88;0.90;;;;;;;;;;4964774;28;86928;-82
2023/10/16 08:51:13;;;;;;;3.15;1.10;;;;;;;;;;4972649;28;87206;-82
2023/10/16 08:53:42;;;;;;;1.67;0.90;;;;;;;;;;4975944;28;87289;-82
2023/10/16 08:56:08;;;;;;;1.77;0.95;;;;;;;;;;4972850;28;87106;-82
2023/10/16 08:58:39;;;;;;;1.80;0.90;;;;;;;;;;4973245;28;87101;-81
2023/10/16 09:01:09;;;;;;;3.05;0.98;;;;;;;;;;4972186;28;87416;-81
2023/10/16 09:03:38;;;;;;;1.90;0.88;;;;;;;;;;4972011;28;89615;-81
2023/10/16 09:06:05;;;;;;;1.95;0.90;;;;;;;;;;4972919;28;87036;-80
2023/10/16 09:08:33;;;;;;;2.60;0.98;;;;;;;;;;4973904;28;87001;-80
2023/10/16 09:11:05;;;;;;;2.80;1.00;;;;;;;;;;4973860;28;86844;-82
2023/10/16 09:13:35;;;;;;;3.15;0.93;;;;;;;;;;4966598;28;87254;-81
2023/10/16 09:16:13;;;;;;;2.75;0.93;;;;;;;;;;4973434;28;86725;-79
2023/10/16 09:18:41;;;;;;;3.03;0.95;;;;;;;;;;4972945;28;88111;-82
2023/10/16 09:21:14;;;;;;;1.25;0.73;;;;;;;;;;4973796;28;88173;-82
2023/10/16 09:23:40;;;;;;;2.20;1.00;;;;;;;;;;4972873;28;87436;-82
2023/10/16 09:26:07;;;;;;;2.78;1.13;;;;;;;;;;4971227;28;87731;-82
2023/10/16 09:28:33;;;;;;;1.60;0.90;;;;;;;;;;4971654;28;88424;-82
2023/10/16 09:31:03;;;;;;;3.15;0.90;;;;;;;;;;4966307;28;87630;-81
2023/10/16 09:33:39;;;;;;;1.63;0.90;;;;;;;;;;4963132;28;87389;-81
2023/10/16 09:36:17;;;;;;;2.13;0.90;;;;;;;;;;4973986;28;87198;-82
2023/10/16 09:38:45;;;;;;;2.42;0.85;;;;;;;;;;4966269;28;87398;-81
2023/10/16 09:44:21;;;;;;;2.28;0.85;;;;;;;;;;4967048;28;87111;-80
2023/10/16 09:46:52;;;;;;;2.17;0.80;;;;;;;;;;4984323;28;92644;-81
2023/10/16 09:49:24;;;;;;;2.88;0.82;;;;;;;;;;4973451;28;87332;-81
2023/10/16 09:51:57;;;;;;;2.88;0.85;;;;;;;;;;4968638;28;87519;-82
2023/10/16 09:54:35;;;;;;;2.38;0.75;;;;;;;;;;4975356;28;91580;-82
2023/10/16 09:57:06;;;;;;;1.40;0.80;;;;;;;;;;4973861;28;87386;-83
2023/10/16 09:59:33;;;;;;;1.60;0.77;;;;;;;;;;4975344;28;86666;-82
2023/10/16 10:02:05;;;;;;;;;;;;;;;;;;4972524;28;86941;-80
2023/10/16 10:04:35;;;;;;;1.65;0.90;;;;;;;;;;4977214;28;86862;-81
2023/10/16 10:07:11;;;;;;;2.55;0.90;;;;;;;;;;4973417;28;87801;-80
2023/10/16 10:09:44;;;;;;;1.80;0.90;;;;;;;;;;4975076;28;87722;-81
2023/10/16 10:12:22;;;;;;;2.72;0.95;;;;;;;;;;4962086;28;87789;-80
2023/10/16 10:15:07;;;;;;;2.00;0.77;;;;;;;;;;4973634;28;87993;-81
2023/10/16 10:17:34;;;;;;;1.90;0.90;;;;;;;;;;4987791;28;88525;-80
2023/10/16 10:20:09;;;;;;;2.30;0.80;;;;;;;;;;4972617;28;87096;-81
2023/10/16 10:22:36;;;;;;;1.40;0.70;;;;;;;;;;4973933;28;89929;-81
2023/10/16 10:25:04;;;;;;;;;;;;;;;;;;4973941;28;87498;-81
2023/10/16 10:27:43;;;;;;;2.03;0.90;;;;;;;;;;4968251;28;88035;-81
2023/10/16 10:30:33;;;;;;;1.92;0.80;;;;;;;;;;4970133;28;87428;-81
2023/10/16 10:32:59;;;;;;;1.63;0.70;;;;;;;;;;4971121;28;87461;-82
2023/10/16 10:35:38;;;;;;;3.15;0.70;;;;;;;;;;4972825;28;87147;-83
2023/10/16 10:38:17;;;;;;;1.30;0.65;;;;;;;;;;4975383;28;87387;-80
2023/10/16 10:41:02;;;;;;;1.50;0.63;;;;;;;;;;4969709;28;87498;-80
2023/10/16 10:43:39;;;;;;;1.38;0.68;;;;;;;;;;4967499;28;88487;-80
2023/10/16 10:46:07;;;;;;;1.58;0.73;;;;;;;;;;4968868;28;88101;-81
2023/10/16 10:48:38;;;;;;;1.25;0.63;;;;;;;;;;4953533;28;89097;-81
2023/10/16 10:51:06;;;;;;;1.23;0.80;;;;;;;;;;4973774;28;87432;-82
2023/10/16 10:53:35;;;;;;;1.30;0.60;;;;;;;;;;4974088;28;88551;-82
2023/10/16 10:56:07;;;;;;;1.75;0.75;;;;;;;;;;4971840;28;87155;-82
2023/10/16 10:58:37;;;;;;;1.75;0.70;;;;;;;;;;4972403;28;88054;-82
2023/10/16 11:01:16;;;;;;;1.30;0.68;;;;;;;;;;4971188;28;87016;-82
2023/10/16 11:03:45;;;;;;;;;;;;;;;;;;4972708;28;87964;-82
2023/10/16 11:06:18;;;;;;;2.72;0.70;;;;;;;;;;4970459;28;102997;-82
2023/10/16 11:08:45;;;;;;;;;;;;;;;;;;4976357;28;87950;-82
2023/10/16 11:11:12;;;;;;;1.63;0.52;;;;;;;;;;4973604;28;86577;-82
2023/10/16 11:13:46;;;;;;;1.30;0.75;;;;;;;;;;4972233;28;86955;-82
2023/10/16 11:16:14;;;;;;;1.73;0.73;;;;;;;;;;4974528;28;89488;-83
2023/10/16 11:18:56;;;;;;;1.60;0.70;;;;;;;;;;4970151;28;87294;-82
2023/10/16 11:21:25;;;;;;;1.48;0.70;;;;;;;;;;4963250;28;90472;-83
2023/10/16 11:23:56;;;;;;;1.50;0.60;;;;;;;;;;4956759;28;91615;-83
2023/10/16 11:26:26;;;;;;;1.05;0.60;;;;;;;;;;4964091;28;91674;-81
2023/10/16 11:28:54;;;;;;;2.42;0.65;;;;;;;;;;4968637;28;89445;-82
2023/10/16 11:31:21;;;;;;;2.22;0.70;;;;;;;;;;4969787;28;88887;-83
2023/10/16 11:34:00;;;;;;;0.70;0.60;;;;;;;;;;4969190;28;88623;-82
2023/10/16 11:36:29;;;;;;;1.17;0.68;;;;;;;;;;4965551;28;93344;-83
2023/10/16 11:39:07;;;;;;;1.25;0.50;;;;;;;;;;4969386;28;88313;-82
2023/10/16 11:41:33;;;;;;;2.30;0.70;;;;;;;;;;4970709;28;88087;-82
2023/10/16 11:44:14;;;;;;;1.15;0.50;;;;;;;;;;4958247;28;87417;-81
2023/10/16 11:46:44;;;;;;;2.15;0.50;;;;;;;;;;4967939;28;88210;-81
2023/10/16 11:51:48;;;;;;;2.58;0.70;;;;;;;;;;4978072;28;89225;-81
2023/10/16 11:54:21;;;;;;;2.05;0.60;;;;;;;;;;4978203;28;88953;-81
2023/10/16 11:56:47;;;;;;;1.70;0.60;;;;;;;;;;4979257;28;88024;-82
2023/10/16 11:59:15;;;;;;;1.90;0.82;;;;;;;;;;4988757;28;88008;-83
2023/10/16 12:01:44;;;;;;;1.17;0.60;;;;;;;;;;4992027;28;88398;-83
2023/10/16 12:04:28;;;;;;;1.98;0.63;;;;;;;;;;5010604;28;92043;-83
2023/10/16 12:06:57;;;;;;;2.95;0.88;;;;;;;;;;4992864;28;88093;-81
2023/10/16 12:09:27;;;;;;;1.15;0.50;;;;;;;;;;4984583;28;87201;-82
2023/10/16 12:11:54;;;;;;;1.80;0.50;;;;;;;;;;4983347;28;88841;-81
2023/10/16 12:14:22;;;;;;;1.55;0.55;;;;;;;;;;4987711;28;88720;-80
2023/10/16 12:16:48;;;;;;;2.70;0.68;;;;;;;;;;4982606;28;89472;-80
2023/10/16 12:19:16;;;;;;;2.45;0.68;;;;;;;;;;4982488;28;87942;-81
2023/10/16 12:21:43;;;;;;;1.13;0.55;;;;;;;;;;4992305;28;90079;-80
2023/10/16 12:24:10;;;;;;;2.65;0.70;;;;;;;;;;4985233;28;89309;-80
2023/10/16 12:26:40;;;;;;;2.60;0.93;;;;;;;;;;4985048;28;88534;-80
2023/10/16 12:29:08;;;;;;;4.68;0.93;;;;;;;;;;4959587;28;88293;-80
2023/10/16 12:31:40;;;;;;;3.47;0.70;;;;;;;;;;4971237;28;88342;-82
2023/10/16 12:34:11;;;;;;;1.73;0.60;;;;;;;;;;4968026;28;87717;-81
2023/10/16 12:36:38;;;;;;;3.30;0.70;;;;;;;;;;4975210;28;88341;-81
2023/10/16 12:39:13;;;;;;;1.77;0.63;;;;;;;;;;4972324;28;88305;-81
2023/10/16 12:41:41;;;;;;;4.07;0.77;;;;;;;;;;4972968;28;88966;-80
2023/10/16 12:44:09;;;;;;;2.10;0.55;;;;;;;;;;4973328;28;88551;-80
2023/10/16 12:46:37;;;;;;;2.20;0.80;;;;;;;;;;4976523;28;88663;-80
2023/10/16 12:49:07;;;;;;;3.67;0.80;;;;;;;;;;4964323;28;89273;-80
2023/10/16 12:51:34;;;;;;;4.18;0.60;;;;;;;;;;4969711;28;89565;-81
2023/10/16 12:54:03;;;;;;;;;;;;;;;;;;4976912;28;88483;-81
2023/10/16 12:56:31;;;;;;;1.83;0.70;;;;;;;;;;4976479;28;108346;-81
2023/10/16 12:59:01;;;;;;;2.28;0.60;;;;;;;;;;4973926;28;87964;-80
2023/10/16 13:01:27;;;;;;;2.75;0.65;;;;;;;;;;4972480;28;88912;-81
2023/10/16 13:03:59;;;;;;;1.38;0.40;;;;;;;;;;4972769;28;90014;-80
2023/10/16 13:06:28;;;;;;;1.48;0.60;;;;;;;;;;4967505;28;91832;-80
2023/10/16 13:08:58;;;;;;;3.42;0.77;;;;;;;;;;4973986;28;89204;-81
2023/10/16 13:11:25;;;;;;;2.05;0.70;;;;;;;;;;4973787;28;89026;-81
2023/10/16 13:13:52;;;;;;;2.13;0.68;;;;;;;;;;4960737;28;88472;-81
2023/10/16 13:16:24;;;;;;;1.92;0.68;;;;;;;;;;4952698;28;90704;-80
2023/10/16 13:18:57;;;;;;;2.67;0.70;;;;;;;;;;4972058;28;88472;-80
2023/10/16 13:21:33;;;;;;;1.90;0.50;;;;;;;;;;4989062;28;88466;-80
2023/10/16 13:24:00;;;;;;;1.90;0.60;;;;;;;;;;4978232;28;87884;-82
2023/10/16 13:26:29;;;;;;;1.30;0.60;;;;;;;;;;4969540;28;88325;-81
2023/10/16 13:28:55;;;;;;;1.15;0.50;;;;;;;;;;4970061;28;88902;-82
2023/10/16 13:31:23;;;;;;;1.83;0.63;;;;;;;;;;4969902;28;89510;-82
2023/10/16 13:33:53;;;;;;;2.40;0.50;;;;;;;;;;4972728;28;88711;-80
2023/10/16 13:36:20;;;;;;;2.03;0.68;;;;;;;;;;4971609;28;88117;-81
2023/10/16 13:38:48;;;;;;;2.45;0.60;;;;;;;;;;4975295;28;88764;-81
2023/10/16 13:41:18;;;;;;;1.52;0.70;;;;;;;;;;4973561;28;88000;-81
2023/10/16 13:43:45;;;;;;;1.60;0.55;;;;;;;;;;4969048;28;88903;-81
2023/10/16 13:46:13;;;;;;;;;;;;;;;;;;4972860;28;89032;-83
2023/10/16 13:48:46;;;;;;;1.27;0.70;;;;;;;;;;4967107;28;95238;-81
2023/10/16 13:51:19;;;;;;;1.95;0.40;;;;;;;;;;4971099;28;88898;-80
2023/10/16 13:53:48;;;;;;;1.50;0.40;;;;;;;;;;4968943;28;88030;-81
2023/10/16 13:56:16;;;;;;;1.33;0.50;;;;;;;;;;4969903;28;89265;-80
2023/10/16 13:58:45;;;;;;;2.38;0.60;;;;;;;;;;4971322;28;89131;-82
2023/10/16 14:01:16;;;;;;;2.47;0.68;;;;;;;;;;4971198;28;88123;-81
2023/10/16 14:03:44;;;;;;;1.38;0.50;;;;;;;;;;4989386;28;88419;-80
2023/10/16 14:06:12;;;;;;;2.47;0.57;;;;;;;;;;4970025;28;89181;-81
2023/10/16 14:08:41;;;;;;;1.08;0.60;;;;;;;;;;4972920;28;88588;-81
2023/10/16 14:11:12;;;;;;;1.98;0.60;;;;;;;;;;4975030;28;88720;-81
2023/10/16 14:13:40;;;;;;;1.70;0.60;;;;;;;;;;4977111;28;87445;-82
2023/10/16 14:16:11;;;;;;;2.05;0.50;;;;;;;;;;4969371;28;89313;-81
2023/10/16 14:18:44;;;;;;;1.52;0.50;;;;;;;;;;4970269;28;89497;-81
2023/10/16 14:21:12;;;;;;;1.95;0.50;;;;;;;;;;4967889;28;89037;-82
2023/10/16 14:23:39;;;;;;;1.50;0.60;;;;;;;;;;4973227;28;89313;-81
2023/10/16 14:26:11;;;;;;;1.50;0.50;;;;;;;;;;4973566;28;88988;-81
2023/10/16 14:28:44;;;;;;;1.77;0.60;;;;;;;;;;4965175;28;89246;-82
2023/10/16 14:31:13;;;;;;;1.60;0.50;;;;;;;;;;4972832;28;88658;-83
2023/10/16 14:33:40;;;;;;;2.30;0.63;;;;;;;;;;4972496;28;88139;-82
2023/10/16 14:36:09;;;;;;;1.48;0.60;;;;;;;;;;4971059;28;88425;-81
2023/10/16 14:38:37;;;;;;;2.17;0.50;;;;;;;;;;4965558;28;87765;-82
2023/10/16 14:41:06;;;;;;;1.50;0.57;;;;;;;;;;4965518;28;88621;-82
2023/10/16 14:43:36;;;;;;;1.95;0.60;;;;;;;;;;4950346;28;89934;-81
2023/10/16 14:46:04;;;;;;;0.93;0.43;;;;;;;;;;4954887;28;90467;-81
2023/10/16 14:48:31;;;;;;;1.58;0.60;;;;;;;;;;4970605;28;89886;-82
2023/10/16 14:50:59;;;;;;;1.63;0.55;;;;;;;;;;4971479;28;88868;-83
2023/10/16 14:53:25;;;;;;;;;;;;;;;;;;4966032;28;89063;-82
2023/10/16 14:55:52;;;;;;;3.47;0.63;;;;;;;;;;4970624;28;100321;-84
2023/10/16 14:58:19;;;;;;;1.17;0.70;;;;;;;;;;4971965;28;88688;-81
2023/10/16 15:01:19;;;;;;;2.97;0.50;;;;;;;;;;4970082;28;88362;-83
2023/10/16 15:03:47;;;;;;;2.33;0.75;;;;;;;;;;4970542;28;89703;-82
2023/10/16 15:06:15;;;;;;;1.05;0.45;;;;;;;;;;4969483;28;88977;-82
2023/10/16 15:08:43;;;;;;;1.65;0.50;;;;;;;;;;4969949;28;88211;-82
2023/10/16 15:11:10;;;;;;;3.25;0.63;;;;;;;;;;4957562;28;90398;-83
2023/10/16 15:13:37;;;;;;;1.92;0.60;;;;;;;;;;4966179;28;88469;-81
2023/10/16 15:16:06;;;;;;;1.52;0.50;;;;;;;;;;4970741;28;88417;-82
2023/10/16 15:18:34;;;;;;;1.65;0.60;;;;;;;;;;4974802;28;89735;-82
2023/10/16 15:21:02;;;;;;;1.65;0.70;;;;;;;;;;4971653;28;90720;-83
2023/10/16 15:23:31;;;;;;;1.42;0.60;;;;;;;;;;4980172;28;89449;-83
2023/10/16 15:25:58;;;;;;;2.13;0.60;;;;;;;;;;4974437;28;88581;-81
2023/10/16 15:28:25;;;;;;;2.97;0.57;;;;;;;;;;4979650;28;90435;-83
2023/10/16 15:31:11;;;;;;;;;;;;;;;;;;4966671;28;88933;-82
2023/10/16 15:33:41;;;;;;;3.80;0.90;;;;;;;;;;4979512;28;90173;-82
2023/10/16 15:36:08;;;;;;;2.00;0.70;;;;;;;;;;4961644;28;90208;-81
2023/10/16 15:38:34;;;;;;;1.65;0.50;;;;;;;;;;4987245;28;90480;-82
2023/10/16 15:41:01;;;;;;;1.85;0.60;;;;;;;;;;4970176;28;88739;-82
2023/10/16 15:43:28;;;;;;;3.15;0.80;;;;;;;;;;4972409;28;88604;-82
2023/10/16 15:45:54;;;;;;;3.03;0.73;;;;;;;;;;4971528;28;88639;-82
2023/10/16 15:48:21;;;;;;;3.15;0.82;;;;;;;;;;4971687;28;88795;-83
2023/10/16 15:50:49;;;;;;;1.98;0.80;;;;;;;;;;4972595;28;88702;-82
2023/10/16 15:53:17;;;;;;;2.67;1.00;;;;;;;;;;4975467;28;87888;-83
2023/10/16 15:55:46;;;;;;;2.95;0.88;;;;;;;;;;4973687;28;88096;-81
2023/10/16 15:58:13;;;;;;;4.35;1.02;;;;;;;;;;4973216;28;88730;-82
2023/10/16 16:00:41;;;;;;;2.13;0.82;;;;;;;;;;4969801;28;88805;-82
2023/10/16 16:03:08;;;;;;;2.47;1.00;;;;;;;;;;4973157;28;89754;-83
2023/10/16 16:05:36;;;;;;;2.33;0.80;;;;;;;;;;4958516;28;91604;-81
2023/10/16 16:08:03;;;;;;;1.75;0.80;;;;;;;;;;4974456;28;88506;-80
2023/10/16 16:10:33;;;;;;;4.45;0.90;;;;;;;;;;4979844;28;88667;-81
2023/10/16 16:13:03;;;;;;;2.60;0.88;;;;;;;;;;4973420;28;88153;-81
2023/10/16 16:15:29;;;;;;;2.00;0.85;;;;;;;;;;4975213;28;89686;-80
2023/10/16 16:18:05;;;;;;;4.05;1.00;;;;;;;;;;4970456;28;87832;-81
2023/10/16 16:20:32;;;;;;;3.53;1.08;;;;;;;;;;4967805;28;91861;-80
2023/10/16 16:22:59;;;;;;;2.85;1.05;;;;;;;;;;4970389;28;88261;-82
2023/10/16 16:25:28;;;;;;;4.13;0.90;;;;;;;;;;4967601;28;89476;-81
2023/10/16 16:27:55;;;;;;;2.50;0.90;;;;;;;;;;4971508;28;88346;-80
2023/10/16 16:30:21;;;;;;;4.72;1.05;;;;;;;;;;4968805;28;88925;-82
2023/10/16 16:32:48;;;;;;;2.50;0.80;;;;;;;;;;4969201;28;88863;-81
2023/10/16 16:35:18;;;;;;;3.22;1.10;;;;;;;;;;4965035;28;89413;-82
2023/10/16 16:37:48;;;;;;;2.50;0.90;;;;;;;;;;4973131;28;90000;-82
2023/10/16 16:40:21;;;;;;;1.77;0.88;;;;;;;;;;4969902;28;90778;-82
2023/10/16 16:42:49;;;;;;;3.45;1.10;;;;;;;;;;4973661;28;88350;-81
2023/10/16 16:45:15;;;;;;;3.58;0.90;;;;;;;;;;4972217;28;88964;-81
2023/10/16 16:47:43;;;;;;;3.58;0.90;;;;;;;;;;4969309;28;88088;-81
2023/10/16 16:50:13;;;;;;;;;;;;;;;;;;4970639;28;89139;-80
2023/10/16 16:52:40;;;;;;;4.55;1.08;;;;;;;;;;4973386;28;97552;-81
2023/10/16 16:55:06;;;;;;;;;;;;;;;;;;4973401;28;88539;-81
2023/10/16 16:57:33;;;;;;;4.25;1.00;;;;;;;;;;4975240;28;99752;-81